< < Back
Terminal Aerodrome Forecast


Current Version              Previous Versions:   1  2  3  4  5  6  7  8  9  

Terminal Aerodrome Forecast

915
FTUS42 KCHS 071738
TAFCHS
TAF
KCHS 071738Z 0718/0818 19009KT P6SM VCTS SCT040CB
      TEMPO 0718/0720 5SM SHRA BKN040
     FM072100 18008KT P6SM FEW040 SCT150
     FM080200 20005KT P6SM FEW060
     FM081200 22007KT P6SM FEW050=



Latest METAR

709
SAUS80 KWBC 071900 RRB
MTRCHS
METAR KCHS 071856Z 15007KT 4SM -TSRA BR BKN030CB BKN045 OVC090 24/22
A3014 RMK AO2 TSB16RAE14B34 SLP205 FRQ LTGICCA OHD TS OHD MOV
NE P0004 T02440222


USA.gov is the U.S. government's official web portal to all federal, state and local government web resources and services.